createdAt,value
2023-05-12T00:00:57.887Z,40.30
2023-05-12T00:01:59.961Z,40.28
2023-05-12T00:04:11.859Z,39.90
2023-05-12T00:05:14.083Z,40.02
2023-05-12T00:07:26.399Z,39.80
2023-05-12T00:08:28.630Z,39.40
2023-05-12T00:09:30.748Z,39.45
2023-05-12T00:10:32.909Z,39.34
2023-05-12T00:11:36.981Z,39.34
2023-05-12T00:12:39.259Z,39.12
2023-05-12T00:13:41.368Z,39.08
2023-05-12T00:14:44.600Z,39.24
2023-05-12T00:15:46.701Z,39.28
2023-05-12T00:16:49.059Z,39.39
2023-05-12T00:17:51.667Z,39.36
2023-05-12T00:18:54.118Z,39.28
2023-05-12T00:19:56.215Z,39.41
2023-05-12T00:20:59.591Z,39.45
2023-05-12T00:22:02.746Z,39.46
2023-05-12T00:23:04.748Z,39.69
2023-05-12T00:24:08.144Z,39.53
2023-05-12T00:25:10.361Z,39.53
2023-05-12T00:26:13.712Z,39.48
2023-05-12T00:27:17.626Z,39.30
2023-05-12T00:28:20.312Z,39.39
2023-05-12T00:29:22.761Z,39.73
2023-05-12T00:30:25.119Z,40.27
2023-05-12T00:31:28.952Z,39.92
2023-05-12T00:32:31.384Z,40.04
2023-05-12T00:33:33.779Z,39.85
2023-05-12T00:34:35.966Z,39.75
2023-05-12T00:35:38.536Z,39.68
2023-05-12T00:36:40.908Z,39.71
2023-05-12T00:37:44.386Z,39.91
2023-05-12T00:38:46.718Z,39.98
2023-05-12T00:39:49.173Z,40.07
2023-05-12T00:40:52.486Z,40.08
2023-05-12T00:41:56.532Z,40.16
2023-05-12T00:43:00.196Z,40.31
2023-05-12T00:44:02.669Z,40.28
2023-05-12T00:46:17.079Z,40.53
2023-05-12T00:47:19.839Z,40.68
2023-05-12T00:48:22.318Z,40.77
2023-05-12T00:50:35.632Z,40.98
2023-05-12T00:51:38.177Z,41.10
2023-05-12T00:52:41.388Z,41.20
2023-05-12T00:53:50.069Z,41.32
2023-05-12T00:55:57.801Z,41.28
2023-05-12T00:57:02.413Z,41.50
2023-05-12T00:58:06.814Z,41.35
2023-05-12T00:59:11.318Z,41.39
2023-05-12T01:00:16.931Z,41.32
2023-05-12T01:02:36.673Z,41.21
2023-05-12T01:04:49.560Z,41.12
2023-05-12T01:06:00.414Z,41.04
2023-05-12T01:07:22.909Z,41.07
2023-05-12T01:08:26.562Z,41.27
2023-05-12T01:09:29.594Z,41.06
2023-05-12T01:10:33.968Z,41.08
2023-05-12T01:11:37.701Z,41.13
2023-05-12T01:12:40.898Z,41.72
2023-05-12T01:13:43.544Z,41.33
2023-05-12T01:14:46.586Z,41.43
2023-05-12T01:15:50.427Z,41.79
2023-05-12T01:16:55.638Z,41.82
2023-05-12T01:19:13.566Z,41.42
2023-05-12T01:20:18.549Z,41.45
2023-05-12T01:21:21.748Z,41.41
2023-05-12T01:22:25.858Z,41.36
2023-05-12T01:23:32.141Z,41.21
2023-05-12T01:25:49.265Z,41.48
2023-05-12T01:26:51.661Z,41.49
2023-05-12T01:27:55.243Z,41.35
2023-05-12T01:28:57.870Z,41.42
2023-05-12T01:30:04.838Z,41.42
2023-05-12T01:31:09.014Z,41.39
2023-05-12T01:32:14.806Z,41.55
2023-05-12T01:33:17.289Z,41.70
2023-05-12T01:34:20.268Z,41.76
2023-05-12T01:36:33.782Z,42.06
2023-05-12T01:37:36.046Z,41.99
2023-05-12T01:38:40.428Z,42.11
2023-05-12T01:39:43.245Z,42.19
2023-05-12T01:40:47.473Z,42.29
2023-05-12T01:41:50.599Z,42.37
2023-05-12T01:42:52.995Z,42.44
2023-05-12T01:43:55.147Z,42.41
2023-05-12T01:46:07.016Z,42.58
2023-05-12T01:47:10.080Z,42.71
2023-05-12T01:48:14.627Z,42.69
2023-05-12T01:49:17.435Z,42.90
2023-05-12T01:50:21.171Z,42.82
2023-05-12T01:51:23.880Z,42.78
2023-05-12T01:52:26.944Z,42.94
2023-05-12T01:53:29.534Z,43.04
2023-05-12T01:54:31.930Z,43.11
2023-05-12T01:55:34.691Z,43.10
2023-05-12T01:56:37.791Z,43.17
2023-05-12T01:57:40.286Z,43.31
2023-05-12T01:58:42.726Z,43.44
2023-05-12T01:59:45.541Z,43.41
2023-05-12T02:00:48.135Z,43.59
2023-05-12T02:01:51.494Z,43.56
2023-05-12T02:04:05.088Z,43.86
2023-05-12T02:05:09.478Z,44.00
2023-05-12T02:07:21.198Z,44.02
2023-05-12T02:08:23.364Z,44.13
2023-05-12T02:09:25.579Z,44.17
2023-05-12T02:10:29.729Z,44.28
2023-05-12T02:11:31.933Z,44.36
2023-05-12T02:12:34.505Z,44.44
2023-05-12T02:13:36.893Z,44.54
2023-05-12T02:14:39.459Z,44.62
2023-05-12T02:15:42.011Z,44.74
2023-05-12T02:16:45.684Z,44.72
2023-05-12T02:17:48.367Z,44.90
2023-05-12T02:18:51.316Z,45.20
2023-05-12T02:19:54.256Z,45.38
2023-05-12T02:20:56.688Z,45.50
2023-05-12T02:21:58.978Z,45.59
2023-05-12T02:23:01.407Z,45.70
2023-05-12T02:24:06.544Z,45.65
2023-05-12T02:25:10.003Z,45.58
2023-05-12T02:26:12.952Z,45.77
2023-05-12T02:27:15.212Z,45.80
2023-05-12T02:28:17.395Z,45.80
2023-05-12T02:29:19.663Z,45.70
2023-05-12T02:30:22.062Z,45.87
2023-05-12T02:31:24.733Z,45.68
2023-05-12T02:32:26.962Z,45.76
2023-05-12T02:33:29.418Z,45.86
2023-05-12T02:34:31.506Z,45.73
2023-05-12T02:35:33.754Z,45.69
2023-05-12T02:36:36.621Z,45.90
2023-05-12T02:37:38.865Z,46.11
2023-05-12T02:38:41.130Z,46.11
2023-05-12T02:39:43.732Z,46.34
2023-05-12T02:40:46.050Z,46.29
2023-05-12T02:41:48.499Z,46.45
2023-05-12T02:42:51.298Z,46.30
2023-05-12T02:43:53.761Z,46.63
2023-05-12T02:44:57.045Z,46.59
2023-05-12T02:45:59.685Z,46.71
2023-05-12T02:47:02.522Z,46.83
2023-05-12T02:48:06.963Z,46.87
2023-05-12T02:49:09.326Z,46.86
2023-05-12T02:50:12.036Z,46.92
2023-05-12T02:51:14.436Z,46.96
2023-05-12T02:53:26.632Z,47.02
2023-05-12T02:54:29.919Z,47.11
2023-05-12T02:55:32.237Z,47.03
2023-05-12T02:56:34.480Z,47.11
2023-05-12T02:57:36.773Z,46.98
2023-05-12T02:58:39.420Z,47.03
2023-05-12T02:59:41.658Z,46.76
2023-05-12T03:00:43.914Z,47.16
2023-05-12T03:01:46.125Z,47.17
2023-05-12T03:02:48.619Z,47.34
2023-05-12T03:03:50.780Z,47.44
2023-05-12T03:04:53.449Z,47.47
2023-05-12T03:05:55.723Z,47.40
2023-05-12T03:06:59.292Z,47.46
2023-05-12T03:08:01.861Z,47.66
2023-05-12T03:09:03.916Z,47.69
2023-05-12T03:11:18.218Z,47.80
2023-05-12T03:12:20.880Z,47.99
2023-05-12T03:13:23.364Z,48.07
2023-05-12T03:14:26.176Z,48.23
2023-05-12T03:15:28.473Z,48.28
2023-05-12T03:16:33.252Z,48.34
2023-05-12T03:17:35.811Z,48.34
2023-05-12T03:18:38.488Z,48.56
2023-05-12T03:19:41.290Z,48.57
2023-05-12T03:20:44.328Z,48.76
2023-05-12T03:21:46.537Z,49.09
2023-05-12T03:22:48.860Z,49.20
2023-05-12T03:23:51.144Z,49.26
2023-05-12T03:26:22.595Z,49.27
2023-05-12T03:27:25.034Z,49.50
2023-05-12T03:28:27.998Z,49.64
2023-05-12T03:29:30.259Z,49.58
2023-05-12T03:30:33.266Z,49.77
2023-05-12T03:31:35.950Z,50.14
2023-05-12T03:32:38.853Z,49.97
2023-05-12T03:33:42.480Z,49.97
2023-05-12T03:34:44.573Z,49.85
2023-05-12T03:35:47.443Z,50.20
2023-05-12T03:36:50.496Z,50.18
2023-05-12T03:37:52.794Z,50.33
2023-05-12T03:38:55.061Z,50.25
2023-05-12T03:39:57.148Z,50.26
2023-05-12T03:42:35.721Z,50.36
2023-05-12T03:43:37.901Z,50.72
2023-05-12T03:44:40.285Z,50.86
2023-05-12T03:45:42.642Z,50.69
2023-05-12T03:46:45.239Z,50.68
2023-05-12T03:47:47.690Z,50.72
2023-05-12T03:48:55.336Z,50.71
2023-05-12T03:49:57.997Z,50.61
2023-05-12T03:51:00.490Z,50.58
2023-05-12T03:52:04.225Z,50.65
2023-05-12T03:53:06.331Z,50.58
2023-05-12T03:54:09.776Z,50.71
2023-05-12T03:55:12.083Z,50.75
2023-05-12T03:56:15.672Z,50.71
2023-05-12T03:57:21.712Z,50.66
2023-05-12T03:58:24.232Z,50.78
2023-05-12T04:00:42.089Z,50.53
2023-05-12T04:01:43.939Z,50.43
2023-05-12T04:02:46.960Z,50.42
2023-05-12T04:03:49.420Z,50.08
2023-05-12T04:04:51.725Z,49.79
2023-05-12T04:06:01.421Z,49.59
2023-05-12T04:07:04.624Z,49.39
2023-05-12T04:08:06.725Z,49.09
2023-05-12T04:09:10.273Z,48.80
2023-05-12T04:10:12.758Z,48.29
2023-05-12T04:11:14.925Z,47.76
2023-05-12T04:12:20.864Z,47.53
2023-05-12T04:14:42.735Z,47.29
2023-05-12T04:15:39.508Z,47.29
2023-05-12T04:16:42.582Z,47.39
2023-05-12T04:18:56.627Z,47.33
2023-05-12T04:19:59.109Z,47.45
2023-05-12T04:21:01.188Z,47.47
2023-05-12T04:23:13.345Z,47.32
2023-05-12T04:24:16.271Z,47.55
2023-05-12T04:25:20.582Z,47.53
2023-05-12T04:27:34.936Z,47.53
2023-05-12T04:28:36.981Z,47.66
2023-05-12T04:29:39.153Z,47.67
2023-05-12T04:30:43.019Z,47.78
2023-05-12T04:31:45.613Z,47.72
2023-05-12T04:32:47.972Z,47.68
2023-05-12T04:33:50.068Z,47.83
2023-05-12T04:34:52.663Z,47.81
2023-05-12T04:35:57.673Z,47.81
2023-05-12T04:37:01.184Z,47.73
2023-05-12T04:38:03.614Z,47.70
2023-05-12T04:39:06.323Z,47.71
2023-05-12T04:40:09.760Z,47.61
2023-05-12T04:41:11.902Z,47.58
2023-05-12T04:42:14.123Z,47.52
2023-05-12T04:44:20.735Z,47.71
2023-05-12T04:45:23.380Z,47.73
2023-05-12T04:46:27.501Z,47.53
2023-05-12T04:47:30.141Z,47.61
2023-05-12T04:48:32.408Z,47.66
2023-05-12T04:49:34.445Z,47.69
2023-05-12T04:50:36.664Z,47.77
2023-05-12T04:51:38.936Z,47.82
2023-05-12T04:52:41.100Z,47.69
2023-05-12T04:53:43.487Z,47.61
2023-05-12T04:54:45.840Z,47.63
2023-05-12T04:55:47.994Z,47.67
2023-05-12T04:56:51.837Z,47.74
2023-05-12T04:57:54.143Z,47.65
2023-05-12T04:58:56.322Z,47.57
2023-05-12T05:01:08.860Z,47.55
2023-05-12T05:02:11.496Z,47.56
2023-05-12T05:03:14.249Z,47.65
2023-05-12T05:04:16.978Z,47.53
2023-05-12T05:05:19.526Z,47.64
2023-05-12T05:06:22.978Z,47.75
2023-05-12T05:07:25.828Z,47.76
2023-05-12T05:08:28.970Z,47.71
2023-05-12T05:09:33.402Z,47.65
2023-05-12T05:10:36.499Z,47.65
2023-05-12T05:11:38.786Z,47.59
2023-05-12T05:12:40.984Z,47.30
2023-05-12T05:13:43.139Z,46.91
2023-05-12T05:14:46.138Z,46.52
2023-05-12T05:17:03.523Z,45.86
2023-05-12T05:18:06.763Z,45.50
2023-05-12T05:19:20.254Z,44.95
2023-05-12T05:20:15.409Z,44.53
2023-05-12T05:21:17.672Z,44.06
2023-05-12T05:22:19.934Z,43.62
2023-05-12T05:23:22.129Z,43.78
2023-05-12T05:24:25.341Z,43.28
2023-05-12T05:25:27.650Z,42.46
2023-05-12T05:26:31.313Z,42.65
2023-05-12T05:27:41.263Z,41.76
2023-05-12T05:28:43.695Z,41.32
2023-05-12T05:29:45.860Z,40.85
2023-05-12T05:30:49.087Z,40.90
2023-05-12T05:31:52.517Z,40.45
2023-05-12T05:32:54.953Z,40.38
2023-05-12T05:33:57.923Z,40.83
2023-05-12T05:35:01.361Z,40.54
2023-05-12T05:36:05.616Z,40.37
2023-05-12T05:37:07.953Z,39.77
2023-05-12T05:38:13.254Z,39.32
2023-05-12T05:39:15.464Z,39.15
2023-05-12T05:40:19.273Z,38.86
2023-05-12T05:41:21.879Z,38.64
2023-05-12T05:42:25.527Z,38.36
2023-05-12T05:44:58.697Z,37.85
2023-05-12T05:46:00.802Z,37.59
2023-05-12T05:47:03.164Z,37.36
2023-05-12T05:48:06.544Z,37.32
2023-05-12T05:49:08.876Z,37.62
2023-05-12T05:50:13.484Z,37.55
2023-05-12T05:51:16.604Z,36.83
2023-05-12T05:52:19.033Z,35.53
2023-05-12T05:53:22.622Z,35.27
2023-05-12T05:54:25.807Z,35.53
2023-05-12T05:55:28.006Z,35.06
2023-05-12T05:56:31.825Z,34.73
2023-05-12T05:57:34.137Z,34.48
2023-05-12T05:58:37.498Z,34.57
2023-05-12T06:00:49.427Z,34.11
2023-05-12T06:01:51.368Z,33.40
2023-05-12T06:02:53.521Z,33.02
2023-05-12T06:03:56.370Z,33.59
2023-05-12T06:04:58.795Z,33.46
2023-05-12T06:06:01.029Z,33.67
2023-05-12T06:07:04.819Z,34.05
2023-05-12T06:09:16.966Z,33.82
2023-05-12T06:10:20.035Z,34.69
2023-05-12T06:11:24.141Z,34.90
2023-05-12T06:12:26.832Z,35.46
2023-05-12T06:13:29.593Z,35.38
2023-05-12T06:14:31.955Z,35.70
2023-05-12T06:15:34.367Z,35.89
2023-05-12T06:16:38.304Z,36.08
2023-05-12T06:17:40.482Z,36.08
2023-05-12T06:18:44.143Z,36.15
2023-05-12T06:19:48.609Z,36.34
2023-05-12T06:20:51.976Z,36.56
2023-05-12T06:21:54.201Z,36.76
2023-05-12T06:22:56.773Z,36.74
2023-05-12T06:23:59.587Z,36.74
2023-05-12T06:26:12.075Z,37.22
2023-05-12T06:27:15.187Z,37.39
2023-05-12T06:28:17.824Z,37.52
2023-05-12T06:29:22.238Z,37.70
2023-05-12T06:30:25.142Z,37.72
2023-05-12T06:31:29.323Z,38.51
2023-05-12T06:32:31.733Z,38.52
2023-05-12T06:33:34.459Z,38.20
2023-05-12T06:34:36.630Z,38.52
2023-05-12T06:35:38.700Z,38.94
2023-05-12T06:36:43.837Z,38.73
2023-05-12T06:37:46.198Z,38.71
2023-05-12T06:38:50.345Z,38.94
2023-05-12T06:39:53.109Z,38.87
2023-05-12T06:40:55.666Z,38.99
2023-05-12T06:41:59.800Z,39.12
2023-05-12T06:44:11.868Z,38.90
2023-05-12T06:45:14.368Z,39.16
2023-05-12T06:46:18.411Z,39.39
2023-05-12T06:47:20.663Z,39.30
2023-05-12T06:48:24.549Z,39.19
2023-05-12T06:49:28.715Z,39.13
2023-05-12T06:50:31.361Z,39.47
2023-05-12T06:51:33.573Z,39.14
2023-05-12T06:52:38.535Z,39.22
2023-05-12T06:53:41.125Z,39.29
2023-05-12T06:54:43.406Z,39.27
2023-05-12T06:55:45.578Z,39.57
2023-05-12T06:56:48.179Z,39.68
2023-05-12T06:57:50.217Z,39.98
2023-05-12T06:58:52.411Z,40.37
2023-05-12T06:59:54.909Z,40.66
2023-05-12T07:00:58.538Z,41.28
2023-05-12T07:02:01.240Z,41.00
2023-05-12T07:03:03.928Z,40.49
2023-05-12T07:04:07.017Z,40.50
2023-05-12T07:05:11.687Z,40.33
2023-05-12T07:06:14.005Z,40.65
2023-05-12T07:07:16.313Z,41.15
2023-05-12T07:08:19.548Z,41.00
2023-05-12T07:09:21.885Z,41.37
2023-05-12T07:10:27.282Z,41.45
2023-05-12T07:11:29.697Z,40.53
2023-05-12T07:12:32.529Z,40.21
2023-05-12T07:13:36.087Z,40.24
2023-05-12T07:14:38.454Z,40.11
2023-05-12T07:15:41.807Z,40.35
2023-05-12T07:16:44.561Z,39.87
2023-05-12T07:17:47.262Z,38.88
2023-05-12T07:18:50.054Z,39.34
2023-05-12T07:19:52.197Z,39.65
2023-05-12T07:20:54.434Z,39.93
2023-05-12T07:21:57.380Z,39.74
2023-05-12T07:24:08.844Z,39.39
2023-05-12T07:25:14.073Z,39.41
2023-05-12T07:26:16.222Z,38.16
2023-05-12T07:27:20.058Z,37.93
2023-05-12T07:28:29.981Z,37.31
2023-05-12T07:29:32.647Z,38.40
2023-05-12T07:30:38.046Z,38.49
2023-05-12T07:31:41.410Z,37.18
2023-05-12T07:32:45.246Z,37.31
2023-05-12T07:33:48.195Z,37.86
2023-05-12T07:34:50.544Z,37.81
2023-05-12T07:35:53.712Z,38.11
2023-05-12T07:36:59.207Z,37.78
2023-05-12T07:38:01.418Z,38.14
2023-05-12T07:39:03.628Z,37.01
2023-05-12T07:40:07.673Z,36.92
2023-05-12T07:41:09.947Z,37.46
2023-05-12T07:42:12.892Z,36.87
2023-05-12T07:43:15.499Z,36.26
2023-05-12T07:44:19.286Z,35.71
2023-05-12T07:45:23.413Z,36.46
2023-05-12T07:46:25.926Z,37.14
2023-05-12T07:47:30.003Z,36.25
2023-05-12T07:48:33.406Z,35.37
2023-05-12T07:49:40.171Z,34.71
2023-05-12T07:50:42.469Z,36.16
2023-05-12T07:51:51.014Z,36.04
2023-05-12T07:52:56.468Z,36.56
2023-05-12T07:54:01.359Z,36.68
2023-05-12T07:55:06.073Z,36.43
2023-05-12T07:56:10.354Z,34.71
2023-05-12T07:57:21.116Z,34.66
2023-05-12T07:58:24.592Z,34.12
2023-05-12T07:59:27.235Z,34.80
2023-05-12T08:00:33.314Z,35.62
2023-05-12T08:01:37.627Z,34.27
2023-05-12T08:02:41.290Z,34.70
2023-05-12T08:03:44.893Z,34.52
2023-05-12T08:04:47.290Z,34.93
2023-05-12T08:05:49.354Z,33.48
2023-05-12T08:06:52.615Z,33.21
2023-05-12T08:07:54.708Z,34.22
2023-05-12T08:10:09.631Z,33.22
2023-05-12T08:11:11.581Z,32.66
2023-05-12T08:12:18.105Z,32.91
2023-05-12T08:14:34.163Z,34.63
2023-05-12T08:15:37.199Z,34.69
2023-05-12T08:16:41.186Z,34.66
2023-05-12T08:17:47.481Z,34.09
2023-05-12T08:18:49.768Z,34.05
2023-05-12T08:19:52.136Z,33.21
2023-05-12T08:20:54.687Z,33.02
2023-05-12T08:21:57.160Z,34.03
2023-05-12T08:22:59.259Z,34.86
2023-05-12T08:24:03.058Z,34.40
2023-05-12T08:25:09.666Z,31.97
2023-05-12T08:26:12.181Z,32.16
2023-05-12T08:27:16.297Z,31.17
2023-05-12T08:28:18.512Z,30.83
2023-05-12T08:29:21.770Z,32.12
2023-05-12T08:30:24.377Z,32.82
2023-05-12T08:31:26.562Z,31.13
2023-05-12T08:34:02.727Z,31.88
2023-05-12T08:34:56.770Z,32.17
2023-05-12T08:36:00.929Z,32.12
2023-05-12T08:37:05.261Z,31.54
2023-05-12T08:38:07.408Z,30.34
2023-05-12T08:39:09.564Z,29.78
2023-05-12T08:41:53.821Z,30.73
2023-05-12T08:43:11.439Z,30.72
2023-05-12T08:44:14.374Z,30.93
2023-05-12T08:45:18.307Z,31.38
2023-05-12T08:46:22.182Z,29.69
2023-05-12T08:47:25.760Z,29.88
2023-05-12T08:48:29.434Z,31.69
2023-05-12T08:49:32.889Z,32.15
2023-05-12T08:50:38.290Z,30.12
2023-05-12T08:51:41.467Z,31.53
2023-05-12T08:52:50.306Z,32.15
2023-05-12T08:53:55.577Z,32.46
2023-05-12T08:55:00.820Z,32.23
2023-05-12T08:57:23.657Z,32.26
2023-05-12T08:59:36.223Z,30.29
2023-05-12T09:00:38.893Z,30.88
2023-05-12T09:01:43.576Z,30.03
2023-05-12T09:02:54.558Z,32.08
2023-05-12T09:04:00.339Z,31.91
2023-05-12T09:06:19.378Z,31.71
2023-05-12T09:07:21.916Z,31.08
2023-05-12T09:08:31.484Z,31.29
2023-05-12T09:09:36.960Z,30.93
2023-05-12T09:10:41.164Z,31.68
2023-05-12T09:11:44.653Z,31.55
2023-05-12T09:15:22.745Z,31.46
2023-05-12T09:16:29.728Z,31.51
2023-05-12T09:17:32.026Z,32.47
2023-05-12T09:19:53.298Z,32.24
2023-05-12T09:21:00.376Z,31.93
2023-05-12T09:22:02.601Z,32.03
2023-05-12T09:23:16.470Z,31.75
2023-05-12T09:24:19.645Z,32.15
2023-05-12T09:25:25.450Z,29.82
2023-05-12T09:26:28.466Z,29.51
2023-05-12T09:27:32.452Z,29.35
2023-05-12T09:28:38.362Z,29.36
2023-05-12T09:29:59.052Z,28.96
2023-05-12T09:30:54.095Z,28.86
2023-05-12T09:33:10.750Z,28.35
2023-05-12T09:34:12.670Z,28.82
2023-05-12T09:35:14.791Z,29.23
2023-05-12T09:36:22.916Z,29.42
2023-05-12T09:37:31.436Z,29.69
2023-05-12T09:38:37.106Z,29.08
2023-05-12T09:39:40.237Z,29.19
2023-05-12T09:40:45.154Z,29.57
2023-05-12T09:43:11.530Z,28.39
2023-05-12T09:44:16.827Z,30.23
2023-05-12T09:45:23.777Z,29.96
2023-05-12T09:46:26.488Z,30.72
2023-05-12T09:48:48.499Z,29.49
2023-05-12T09:49:51.698Z,29.11
2023-05-12T09:50:55.575Z,29.30
2023-05-12T09:53:07.789Z,31.55
2023-05-12T09:54:09.787Z,32.27
2023-05-12T09:55:12.449Z,30.25
2023-05-12T09:56:16.344Z,30.14
2023-05-12T09:57:20.902Z,30.65
2023-05-12T09:58:23.775Z,30.58
2023-05-12T09:59:29.428Z,29.93
2023-05-12T10:00:41.199Z,30.30
2023-05-12T10:01:38.046Z,29.87
2023-05-12T10:02:42.173Z,30.07
2023-05-12T10:03:55.589Z,30.44
2023-05-12T10:05:02.760Z,31.10
2023-05-12T10:06:11.983Z,30.36
2023-05-12T10:07:17.908Z,29.77
2023-05-12T10:09:41.762Z,30.15
2023-05-12T10:10:45.659Z,30.60
2023-05-12T10:11:52.032Z,30.10
2023-05-12T10:12:54.576Z,30.20
2023-05-12T10:13:57.446Z,29.69
2023-05-12T10:15:00.379Z,29.41
2023-05-12T10:16:04.160Z,28.87
2023-05-12T10:17:08.228Z,29.61
2023-05-12T10:18:10.682Z,29.76
2023-05-12T10:19:13.927Z,30.73
2023-05-12T10:20:17.211Z,29.71
2023-05-12T10:21:22.616Z,30.94
2023-05-12T10:22:27.519Z,30.08
2023-05-12T10:23:29.721Z,30.88
2023-05-12T10:24:32.286Z,29.86
2023-05-12T10:25:54.438Z,30.11
2023-05-12T10:26:58.121Z,29.30
2023-05-12T10:28:01.654Z,28.88
2023-05-12T10:29:03.705Z,28.38
2023-05-12T10:30:09.527Z,29.11
2023-05-12T10:31:12.737Z,28.92
2023-05-12T10:32:15.319Z,29.11
2023-05-12T10:33:17.606Z,29.05
2023-05-12T10:34:20.478Z,29.18
2023-05-12T10:36:48.716Z,29.55
2023-05-12T10:37:50.710Z,29.06
2023-05-12T10:38:53.792Z,29.12
2023-05-12T10:39:55.914Z,29.52
2023-05-12T10:41:00.120Z,29.06
2023-05-12T10:42:07.144Z,29.09
2023-05-12T10:43:13.035Z,29.67
2023-05-12T10:44:19.248Z,30.00
2023-05-12T10:45:23.307Z,29.48
2023-05-12T10:46:27.909Z,28.74
2023-05-12T10:47:37.714Z,28.92
2023-05-12T10:48:52.187Z,29.04
2023-05-12T10:49:57.664Z,29.26
2023-05-12T10:51:07.647Z,29.94
2023-05-12T10:52:15.196Z,29.45
2023-05-12T10:53:20.852Z,28.71
2023-05-12T10:54:25.447Z,28.79
2023-05-12T10:56:44.106Z,29.52
2023-05-12T10:57:49.212Z,29.57
2023-05-12T10:59:15.291Z,29.91
2023-05-12T11:00:21.529Z,30.48
2023-05-12T11:01:25.412Z,31.17
2023-05-12T11:02:30.830Z,31.35
2023-05-12T11:03:35.515Z,31.42
2023-05-12T11:04:51.183Z,31.15
2023-05-12T11:06:01.376Z,30.67
2023-05-12T11:07:06.012Z,30.54
2023-05-12T11:08:09.437Z,30.23
2023-05-12T11:09:13.393Z,31.37
2023-05-12T11:10:17.511Z,31.26
2023-05-12T11:11:20.605Z,32.29
2023-05-12T11:12:24.228Z,31.22
2023-05-12T11:13:26.326Z,31.31
2023-05-12T11:14:28.885Z,31.20
2023-05-12T11:15:31.521Z,31.20
2023-05-12T11:16:34.784Z,32.13
2023-05-12T11:17:39.097Z,32.46
2023-05-12T11:18:41.860Z,33.05
2023-05-12T11:19:46.810Z,32.94
2023-05-12T11:20:50.906Z,32.69
2023-05-12T11:21:53.952Z,32.21
2023-05-12T11:22:56.492Z,32.28
2023-05-12T11:24:00.567Z,32.83
2023-05-12T11:25:10.031Z,32.24
2023-05-12T11:26:18.450Z,31.78
2023-05-12T11:27:29.965Z,32.28
2023-05-12T11:28:41.144Z,32.51
2023-05-12T11:29:44.951Z,32.67
2023-05-12T11:30:54.987Z,34.88
2023-05-12T11:31:58.347Z,35.73
2023-05-12T11:33:02.044Z,33.83
2023-05-12T11:34:13.181Z,32.65
2023-05-12T11:35:14.901Z,31.99
2023-05-12T11:36:17.211Z,31.76
2023-05-12T11:37:19.455Z,30.81
2023-05-12T11:38:21.536Z,30.49
2023-05-12T11:39:28.610Z,29.76
2023-05-12T11:40:30.723Z,29.32
2023-05-12T11:41:33.173Z,29.40
2023-05-12T11:42:35.537Z,29.29
2023-05-12T11:43:37.710Z,29.96
2023-05-12T11:44:47.181Z,29.68
2023-05-12T11:45:50.224Z,29.65
2023-05-12T11:47:04.569Z,29.83
2023-05-12T11:48:11.811Z,30.22
2023-05-12T11:49:14.424Z,29.68
2023-05-12T11:50:21.697Z,29.63
2023-05-12T11:51:25.947Z,29.40
2023-05-12T11:52:28.295Z,29.77
2023-05-12T11:53:31.426Z,29.67
2023-05-12T11:54:33.628Z,29.48
2023-05-12T11:55:35.770Z,29.37
2023-05-12T11:56:38.270Z,29.50
2023-05-12T11:57:40.354Z,29.56
2023-05-12T11:58:46.170Z,29.68
2023-05-12T11:59:52.389Z,29.66
2023-05-12T12:00:55.683Z,29.69
2023-05-12T12:01:59.569Z,30.32
2023-05-12T12:04:40.260Z,30.03
2023-05-12T12:05:45.988Z,30.08
2023-05-12T12:06:48.169Z,30.48
2023-05-12T12:07:50.198Z,30.44
2023-05-12T12:08:57.783Z,30.71
2023-05-12T12:10:17.977Z,31.01
2023-05-12T12:11:21.572Z,31.31
2023-05-12T12:13:33.294Z,30.83
2023-05-12T12:14:38.912Z,30.56
2023-05-12T12:15:41.124Z,30.92
2023-05-12T12:16:43.593Z,31.15
2023-05-12T12:17:45.798Z,31.73
2023-05-12T12:18:49.641Z,30.91
2023-05-12T12:19:51.957Z,30.62
2023-05-12T12:20:54.292Z,30.64
2023-05-12T12:21:59.072Z,31.08
2023-05-12T12:23:02.094Z,30.78
2023-05-12T12:24:07.143Z,30.73
2023-05-12T12:25:17.936Z,30.93
2023-05-12T12:26:27.722Z,30.52
2023-05-12T12:27:31.506Z,30.09
2023-05-12T12:28:39.429Z,29.76
2023-05-12T12:29:42.794Z,29.70
2023-05-12T12:30:47.539Z,29.79
2023-05-12T12:31:50.654Z,30.28
2023-05-12T12:32:57.051Z,30.15
2023-05-12T12:34:01.837Z,30.37
2023-05-12T12:36:23.070Z,30.18
2023-05-12T12:37:25.845Z,30.31
2023-05-12T12:38:28.504Z,29.79
2023-05-12T12:39:31.871Z,30.18
2023-05-12T12:40:41.600Z,29.69
2023-05-12T12:41:45.722Z,29.64
2023-05-12T12:42:48.193Z,29.63
2023-05-12T12:43:52.177Z,30.12
2023-05-12T12:44:57.725Z,29.96
2023-05-12T12:46:01.834Z,29.80
2023-05-12T12:47:12.218Z,29.95
2023-05-12T12:48:14.536Z,29.62
2023-05-12T12:49:17.149Z,29.61
2023-05-12T12:51:45.603Z,29.70
2023-05-12T12:52:40.964Z,29.33
2023-05-12T12:53:44.169Z,29.48
2023-05-12T12:54:46.728Z,29.40
2023-05-12T12:55:49.324Z,29.34
2023-05-12T12:56:52.538Z,29.48
2023-05-12T12:57:54.632Z,29.78
2023-05-12T12:58:57.742Z,29.69
2023-05-12T12:59:59.987Z,29.89
2023-05-12T13:01:02.458Z,30.65
2023-05-12T13:02:07.899Z,30.53
2023-05-12T13:04:21.572Z,31.53
2023-05-12T13:05:23.665Z,31.23
2023-05-12T13:06:27.329Z,31.29
2023-05-12T13:07:29.936Z,31.35
2023-05-12T13:08:32.003Z,31.28
2023-05-12T13:09:34.643Z,31.40
2023-05-12T13:10:38.848Z,31.50
2023-05-12T13:11:40.953Z,31.68
2023-05-12T13:12:43.705Z,32.02
2023-05-12T13:13:46.775Z,32.49
2023-05-12T13:14:52.144Z,32.76
2023-05-12T13:16:00.641Z,32.41
2023-05-12T13:17:02.923Z,32.46
2023-05-12T13:18:05.393Z,32.24
2023-05-12T13:19:08.848Z,32.00
2023-05-12T13:20:13.418Z,32.09
2023-05-12T13:21:20.654Z,31.82
2023-05-12T13:22:22.838Z,32.37
2023-05-12T13:24:38.553Z,31.38
2023-05-12T13:25:40.510Z,31.39
2023-05-12T13:26:44.875Z,31.42
2023-05-12T13:27:47.559Z,31.78
2023-05-12T13:28:52.672Z,32.05
2023-05-12T13:30:01.842Z,31.94
2023-05-12T13:31:05.096Z,32.29
2023-05-12T13:32:10.055Z,32.23
2023-05-12T13:33:14.014Z,32.19
2023-05-12T13:34:23.017Z,31.51
2023-05-12T13:35:26.089Z,31.33
2023-05-12T13:36:28.738Z,31.21
2023-05-12T13:37:32.008Z,31.56
2023-05-12T13:38:34.148Z,31.80
2023-05-12T13:39:37.935Z,31.58
2023-05-12T13:40:42.666Z,31.68
2023-05-12T13:42:58.821Z,31.74
2023-05-12T13:44:01.689Z,31.56
2023-05-12T13:45:06.371Z,31.04
2023-05-12T13:46:08.832Z,30.71
2023-05-12T13:47:14.389Z,30.98
2023-05-12T13:48:17.899Z,31.11
2023-05-12T13:49:21.247Z,30.55
2023-05-12T13:51:41.632Z,30.78
2023-05-12T13:52:44.736Z,30.80
2023-05-12T13:53:47.986Z,30.59
2023-05-12T13:54:50.635Z,30.70
2023-05-12T13:55:54.454Z,30.80
2023-05-12T13:56:59.352Z,31.13
2023-05-12T13:58:01.447Z,32.02
2023-05-12T14:00:24.517Z,32.33
2023-05-12T14:01:26.977Z,31.64
2023-05-12T14:02:29.112Z,31.02
2023-05-12T14:03:32.271Z,30.58
2023-05-12T14:04:34.553Z,30.81
2023-05-12T14:05:38.488Z,30.51
2023-05-12T14:06:45.915Z,30.45
2023-05-12T14:07:48.168Z,30.67
2023-05-12T14:08:50.711Z,30.87
2023-05-12T14:09:52.771Z,31.26
2023-05-12T14:10:57.011Z,30.91
2023-05-12T14:11:59.658Z,30.57
2023-05-12T14:13:02.846Z,30.61
2023-05-12T14:14:07.478Z,30.66
2023-05-12T14:15:24.127Z,30.83
2023-05-12T14:16:30.761Z,31.51
2023-05-12T14:17:35.382Z,31.20
2023-05-12T14:18:37.409Z,31.07
2023-05-12T14:19:40.028Z,31.13
2023-05-12T14:20:42.376Z,32.27
2023-05-12T14:21:45.911Z,32.08
2023-05-12T14:22:48.392Z,31.31
2023-05-12T14:23:54.936Z,31.53
2023-05-12T14:24:57.000Z,31.39
2023-05-12T14:25:59.957Z,31.83
2023-05-12T14:27:02.439Z,31.02
2023-05-12T14:28:07.932Z,31.11
2023-05-12T14:29:10.082Z,30.75
2023-05-12T14:30:14.191Z,30.64
2023-05-12T14:31:16.722Z,30.98
2023-05-12T14:32:18.967Z,30.94
2023-05-12T14:33:28.087Z,30.82
2023-05-12T14:34:30.449Z,30.93
2023-05-12T14:35:35.672Z,31.59
2023-05-12T14:36:39.779Z,31.25
2023-05-12T14:37:44.607Z,31.31
2023-05-12T14:38:50.214Z,32.00
2023-05-12T14:39:54.437Z,31.63
2023-05-12T14:40:56.999Z,31.99
2023-05-12T14:42:06.496Z,32.09
2023-05-12T14:43:10.534Z,31.70
2023-05-12T14:44:15.663Z,31.78
2023-05-12T14:45:20.758Z,30.75
2023-05-12T14:46:25.046Z,30.45
2023-05-12T14:47:28.250Z,30.41
2023-05-12T14:48:31.875Z,30.53
2023-05-12T14:49:40.174Z,30.63
2023-05-12T14:50:42.389Z,30.59
2023-05-12T14:51:44.587Z,30.94
2023-05-12T14:52:47.988Z,31.09